TNO1122 MYGF-KJAX
Flight info
| Callsign | TNO1122 |
|---|---|
| Flight time | 1h 19m |
| Altitude | 16000 |
| Route | ZFP BR62V JAKEL DCT BRDMN DCT GRIEF DCT PAINN |
| Aircraft | AT75/M-SDFGIRY/S |
Departure
| Time | 2026-04-14 09:49 |
|---|---|
| Airport | Grand Bahama International Airport (MYGF) |
Arrival
| Time | 2026-04-14 11:08 |
|---|---|
| Airport | Jacksonville International Airport (KJAX) |
| Time | Latitude | Longitude | Altitude | Speed | Heading |
|---|---|---|---|---|---|
| 2026-04-14 09:39 | 26.54835 | -78.70093 | 15 ft | 0 kts | 187° |
| 2026-04-14 09:41 | 26.54835 | -78.70094 | 15 ft | 0 kts | 187° |
| 2026-04-14 09:44 | 26.54834 | -78.70094 | 15 ft | 0 kts | 187° |
| 2026-04-14 09:45 | 26.54841 | -78.70093 | 15 ft | 2 kts | 190° |
| 2026-04-14 09:45 | 26.54857 | -78.70086 | 15 ft | 3 kts | 212° |
| 2026-04-14 09:45 | 26.54872 | -78.70070 | 15 ft | 3 kts | 234° |
| 2026-04-14 09:45 | 26.54880 | -78.70050 | 15 ft | 3 kts | 255° |
| 2026-04-14 09:46 | 26.54882 | -78.70048 | 15 ft | 5 kts | 280° |
| 2026-04-14 09:46 | 26.54917 | -78.70092 | 15 ft | 14 kts | 321° |
| 2026-04-14 09:46 | 26.54990 | -78.70220 | 15 ft | 16 kts | 274° |
| 2026-04-14 09:46 | 26.55000 | -78.70377 | 15 ft | 24 kts | 273° |
| 2026-04-14 09:47 | 26.55006 | -78.70530 | 15 ft | 19 kts | 272° |
| 2026-04-14 09:47 | 26.55012 | -78.70644 | 15 ft | 13 kts | 272° |
| 2026-04-14 09:47 | 26.55017 | -78.70786 | 15 ft | 16 kts | 273° |
| 2026-04-14 09:47 | 26.55023 | -78.70913 | 15 ft | 16 kts | 284° |
| 2026-04-14 09:48 | 26.55096 | -78.70983 | 15 ft | 14 kts | 335° |
| 2026-04-14 09:48 | 26.55154 | -78.70990 | 15 ft | 5 kts | 47° |
| 2026-04-14 09:48 | 26.55164 | -78.70972 | 15 ft | 21 kts | 62° |
| 2026-04-14 09:48 | 26.55462 | -78.70377 | 15 ft | 137 kts | 61° |
| 2026-04-14 09:49 | 26.56009 | -78.69316 | 322 ft | 170 kts | 62° |
| 2026-04-14 09:49 | 26.56814 | -78.68241 | 707 ft | 191 kts | 42° |
| 2026-04-14 09:49 | 26.57987 | -78.67675 | 1036 ft | 186 kts | 15° |
| 2026-04-14 09:49 | 26.59343 | -78.67793 | 1439 ft | 208 kts | 348° |
| 2026-04-14 09:50 | 26.60639 | -78.68599 | 1948 ft | 219 kts | 323° |
| 2026-04-14 09:50 | 26.61581 | -78.69959 | 2454 ft | 224 kts | 300° |
| 2026-04-14 09:50 | 26.62154 | -78.71588 | 2966 ft | 225 kts | 289° |
| 2026-04-14 09:50 | 26.62570 | -78.73280 | 3469 ft | 226 kts | 286° |
| 2026-04-14 09:51 | 26.62935 | -78.74991 | 3970 ft | 226 kts | 284° |
| 2026-04-14 09:51 | 26.63281 | -78.76671 | 4460 ft | 225 kts | 284° |
| 2026-04-14 09:51 | 26.63641 | -78.78381 | 4962 ft | 224 kts | 285° |
| 2026-04-14 09:51 | 26.64026 | -78.80064 | 5460 ft | 223 kts | 287° |
| 2026-04-14 09:52 | 26.64502 | -78.81708 | 5956 ft | 221 kts | 292° |
| 2026-04-14 09:52 | 26.65084 | -78.83290 | 6455 ft | 219 kts | 296° |
| 2026-04-14 09:52 | 26.65758 | -78.84804 | 6953 ft | 216 kts | 300° |
| 2026-04-14 09:52 | 26.66499 | -78.86258 | 7451 ft | 214 kts | 303° |
| 2026-04-14 09:53 | 26.67280 | -78.87660 | 7944 ft | 212 kts | 306° |
| 2026-04-14 09:53 | 26.68085 | -78.89026 | 8442 ft | 209 kts | 307° |
| 2026-04-14 09:53 | 26.68626 | -78.89914 | 8770 ft | 208 kts | 307° |
| 2026-04-14 09:53 | 26.69722 | -78.91676 | 9434 ft | 205 kts | 308° |
| 2026-04-14 09:54 | 26.70538 | -78.92971 | 9931 ft | 202 kts | 308° |
| 2026-04-14 09:54 | 26.71346 | -78.94252 | 10429 ft | 200 kts | 308° |
| 2026-04-14 09:54 | 26.72142 | -78.95515 | 10923 ft | 197 kts | 308° |
| 2026-04-14 09:54 | 26.72929 | -78.96761 | 11420 ft | 195 kts | 308° |
| 2026-04-14 09:55 | 26.73699 | -78.97983 | 11865 ft | 196 kts | 308° |
| 2026-04-14 09:55 | 26.74498 | -78.99250 | 12168 ft | 204 kts | 308° |
| 2026-04-14 09:55 | 26.75334 | -79.00570 | 12431 ft | 211 kts | 308° |
| 2026-04-14 09:55 | 26.76199 | -79.01932 | 12690 ft | 218 kts | 308° |
| 2026-04-14 09:56 | 26.77085 | -79.03330 | 12947 ft | 223 kts | 308° |
| 2026-04-14 09:56 | 26.77990 | -79.04768 | 13204 ft | 227 kts | 308° |
| 2026-04-14 09:56 | 26.78904 | -79.06224 | 13459 ft | 230 kts | 307° |
| 2026-04-14 09:56 | 26.79823 | -79.07704 | 13712 ft | 233 kts | 307° |
| 2026-04-14 09:57 | 26.80441 | -79.08697 | 13880 ft | 234 kts | 309° |
| 2026-04-14 09:57 | 26.81914 | -79.10451 | 14214 ft | 234 kts | 320° |
| 2026-04-14 09:57 | 26.82757 | -79.11242 | 14385 ft | 234 kts | 323° |
| 2026-04-14 09:57 | 26.84491 | -79.12691 | 14718 ft | 235 kts | 327° |
| 2026-04-14 09:58 | 26.85835 | -79.13735 | 14969 ft | 235 kts | 328° |
| 2026-04-14 09:58 | 26.86749 | -79.14430 | 15138 ft | 235 kts | 328° |
| 2026-04-14 09:58 | 26.88108 | -79.15457 | 15389 ft | 236 kts | 328° |
| 2026-04-14 09:58 | 26.89470 | -79.16482 | 15639 ft | 236 kts | 328° |
| 2026-04-14 09:59 | 26.90832 | -79.17509 | 15851 ft | 238 kts | 328° |
| 2026-04-14 09:59 | 26.92218 | -79.18556 | 15966 ft | 243 kts | 328° |
| 2026-04-14 09:59 | 26.93621 | -79.19617 | 16002 ft | 250 kts | 328° |
| 2026-04-14 09:59 | 26.95077 | -79.20720 | 16004 ft | 253 kts | 328° |
| 2026-04-14 10:00 | 26.96539 | -79.21830 | 16001 ft | 254 kts | 328° |
| 2026-04-14 10:00 | 26.98006 | -79.22941 | 16002 ft | 255 kts | 328° |
| 2026-04-14 10:00 | 26.99472 | -79.24056 | 16001 ft | 255 kts | 327° |
| 2026-04-14 10:00 | 27.00943 | -79.25178 | 16001 ft | 255 kts | 327° |
| 2026-04-14 10:01 | 27.02412 | -79.26300 | 16001 ft | 256 kts | 328° |
| 2026-04-14 10:01 | 27.03885 | -79.27420 | 16002 ft | 256 kts | 328° |
| 2026-04-14 10:01 | 27.05354 | -79.28540 | 16002 ft | 255 kts | 328° |
| 2026-04-14 10:01 | 27.06825 | -79.29664 | 16002 ft | 256 kts | 327° |
| 2026-04-14 10:02 | 27.08279 | -79.30775 | 16002 ft | 255 kts | 328° |
| 2026-04-14 10:02 | 27.09750 | -79.31901 | 16002 ft | 256 kts | 327° |
| 2026-04-14 10:02 | 27.11218 | -79.33027 | 16002 ft | 256 kts | 327° |
| 2026-04-14 10:02 | 27.12687 | -79.34155 | 16002 ft | 256 kts | 327° |
| 2026-04-14 10:03 | 27.14156 | -79.35283 | 16002 ft | 256 kts | 327° |
| 2026-04-14 10:03 | 27.15630 | -79.36414 | 16002 ft | 256 kts | 327° |
| 2026-04-14 10:03 | 27.17100 | -79.37538 | 16002 ft | 255 kts | 327° |
| 2026-04-14 10:03 | 27.18568 | -79.38663 | 16004 ft | 255 kts | 327° |
| 2026-04-14 10:04 | 27.20015 | -79.39773 | 16006 ft | 255 kts | 327° |
| 2026-04-14 10:04 | 27.21487 | -79.40898 | 16008 ft | 255 kts | 327° |
| 2026-04-14 10:04 | 27.22951 | -79.42022 | 16007 ft | 255 kts | 327° |
| 2026-04-14 10:04 | 27.24420 | -79.43148 | 16008 ft | 255 kts | 327° |
| 2026-04-14 10:05 | 27.25887 | -79.44275 | 16008 ft | 255 kts | 327° |
| 2026-04-14 10:05 | 27.27353 | -79.45404 | 16009 ft | 255 kts | 327° |
| 2026-04-14 10:05 | 27.28822 | -79.46538 | 16009 ft | 255 kts | 327° |
| 2026-04-14 10:05 | 27.30289 | -79.47671 | 16009 ft | 255 kts | 327° |
| 2026-04-14 10:06 | 27.31736 | -79.48790 | 16008 ft | 254 kts | 327° |
| 2026-04-14 10:06 | 27.33194 | -79.49919 | 16005 ft | 253 kts | 327° |
| 2026-04-14 10:06 | 27.34647 | -79.51041 | 16001 ft | 252 kts | 327° |
| 2026-04-14 10:06 | 27.36093 | -79.52162 | 16000 ft | 251 kts | 327° |
| 2026-04-14 10:07 | 27.37519 | -79.53275 | 16000 ft | 251 kts | 327° |
| 2026-04-14 10:07 | 27.38957 | -79.54401 | 16000 ft | 250 kts | 327° |
| 2026-04-14 10:07 | 27.40373 | -79.55496 | 16000 ft | 250 kts | 327° |
| 2026-04-14 10:07 | 27.41807 | -79.56598 | 16000 ft | 249 kts | 327° |
| 2026-04-14 10:08 | 27.43233 | -79.57703 | 16000 ft | 249 kts | 327° |
| 2026-04-14 10:08 | 27.44654 | -79.58815 | 16001 ft | 249 kts | 327° |
| 2026-04-14 10:08 | 27.46071 | -79.59929 | 16001 ft | 248 kts | 326° |
| 2026-04-14 10:08 | 27.47482 | -79.61042 | 16001 ft | 248 kts | 326° |
| 2026-04-14 10:09 | 27.48889 | -79.62162 | 16001 ft | 247 kts | 326° |
| 2026-04-14 10:09 | 27.50295 | -79.63280 | 16002 ft | 247 kts | 326° |
| 2026-04-14 10:09 | 27.51697 | -79.64399 | 16001 ft | 247 kts | 326° |
| 2026-04-14 10:09 | 27.53102 | -79.65516 | 16001 ft | 247 kts | 326° |
| 2026-04-14 10:10 | 27.54506 | -79.66640 | 16001 ft | 247 kts | 326° |
| 2026-04-14 10:10 | 27.55907 | -79.67760 | 16000 ft | 247 kts | 326° |
| 2026-04-14 10:10 | 27.57307 | -79.68880 | 16001 ft | 247 kts | 326° |
| 2026-04-14 10:10 | 27.58687 | -79.69992 | 16001 ft | 247 kts | 326° |
| 2026-04-14 10:11 | 27.60086 | -79.71119 | 16001 ft | 247 kts | 326° |
| 2026-04-14 10:11 | 27.61483 | -79.72246 | 16001 ft | 247 kts | 325° |
| 2026-04-14 10:11 | 27.62879 | -79.73376 | 16001 ft | 247 kts | 325° |
| 2026-04-14 10:11 | 27.64278 | -79.74507 | 16002 ft | 247 kts | 325° |
| 2026-04-14 10:12 | 27.65676 | -79.75634 | 16005 ft | 247 kts | 326° |
| 2026-04-14 10:12 | 27.67073 | -79.76759 | 16006 ft | 247 kts | 326° |
| 2026-04-14 10:12 | 27.68470 | -79.77885 | 16003 ft | 247 kts | 325° |
| 2026-04-14 10:12 | 27.69869 | -79.79015 | 16001 ft | 247 kts | 326° |
| 2026-04-14 10:13 | 27.71265 | -79.80142 | 15999 ft | 247 kts | 326° |
| 2026-04-14 10:13 | 27.72663 | -79.81275 | 15998 ft | 247 kts | 325° |
| 2026-04-14 10:13 | 27.74058 | -79.82404 | 15998 ft | 247 kts | 325° |
| 2026-04-14 10:13 | 27.75451 | -79.83533 | 15998 ft | 247 kts | 325° |
| 2026-04-14 10:14 | 27.76845 | -79.84661 | 15998 ft | 246 kts | 325° |
| 2026-04-14 10:14 | 27.78223 | -79.85775 | 15998 ft | 246 kts | 325° |
| 2026-04-14 10:14 | 27.79615 | -79.86902 | 15998 ft | 246 kts | 325° |
| 2026-04-14 10:14 | 27.81008 | -79.88029 | 15997 ft | 246 kts | 325° |
| 2026-04-14 10:15 | 27.82403 | -79.89152 | 15997 ft | 246 kts | 326° |
| 2026-04-14 10:15 | 27.83795 | -79.90274 | 15996 ft | 246 kts | 325° |
| 2026-04-14 10:15 | 27.85190 | -79.91398 | 15997 ft | 246 kts | 325° |
| 2026-04-14 10:15 | 27.86586 | -79.92529 | 15997 ft | 246 kts | 325° |
| 2026-04-14 10:16 | 27.87975 | -79.93657 | 15997 ft | 246 kts | 325° |
| 2026-04-14 10:16 | 27.89366 | -79.94787 | 15996 ft | 246 kts | 325° |
| 2026-04-14 10:16 | 27.90756 | -79.95917 | 15996 ft | 246 kts | 325° |
| 2026-04-14 10:16 | 27.92148 | -79.97048 | 15996 ft | 246 kts | 325° |
| 2026-04-14 10:17 | 27.93538 | -79.98178 | 15996 ft | 246 kts | 325° |
| 2026-04-14 10:17 | 27.94928 | -79.99308 | 15997 ft | 246 kts | 325° |
| 2026-04-14 10:17 | 27.96319 | -80.00432 | 15999 ft | 246 kts | 325° |
| 2026-04-14 10:17 | 27.97709 | -80.01559 | 15996 ft | 245 kts | 325° |
| 2026-04-14 10:18 | 28.00490 | -80.03804 | 15999 ft | 246 kts | 325° |
| 2026-04-14 10:18 | 28.01877 | -80.04929 | 15999 ft | 245 kts | 325° |
| 2026-04-14 10:18 | 28.03266 | -80.06060 | 15998 ft | 246 kts | 325° |
| 2026-04-14 10:19 | 28.04654 | -80.07192 | 15997 ft | 246 kts | 325° |
| 2026-04-14 10:19 | 28.06044 | -80.08327 | 15996 ft | 246 kts | 325° |
| 2026-04-14 10:19 | 28.07430 | -80.09463 | 15996 ft | 246 kts | 325° |
| 2026-04-14 10:19 | 28.08799 | -80.10581 | 15995 ft | 246 kts | 325° |
| 2026-04-14 10:20 | 28.10191 | -80.11718 | 15995 ft | 246 kts | 325° |
| 2026-04-14 10:20 | 28.11580 | -80.12851 | 15995 ft | 246 kts | 325° |
| 2026-04-14 10:20 | 28.12973 | -80.13986 | 15995 ft | 246 kts | 325° |
| 2026-04-14 10:20 | 28.14362 | -80.15119 | 15995 ft | 246 kts | 325° |
| 2026-04-14 10:21 | 28.15752 | -80.16252 | 15995 ft | 246 kts | 325° |
| 2026-04-14 10:21 | 28.17142 | -80.17385 | 15995 ft | 246 kts | 325° |
| 2026-04-14 10:21 | 28.18534 | -80.18518 | 15995 ft | 246 kts | 325° |
| 2026-04-14 10:21 | 28.19923 | -80.19651 | 15994 ft | 246 kts | 325° |
| 2026-04-14 10:22 | 28.21313 | -80.20787 | 15994 ft | 246 kts | 325° |
| 2026-04-14 10:22 | 28.22701 | -80.21924 | 15990 ft | 246 kts | 325° |
| 2026-04-14 10:22 | 28.24092 | -80.23062 | 15985 ft | 246 kts | 325° |
| 2026-04-14 10:22 | 28.25484 | -80.24202 | 15983 ft | 246 kts | 325° |
| 2026-04-14 10:23 | 28.26875 | -80.25339 | 15982 ft | 247 kts | 325° |
| 2026-04-14 10:23 | 28.28269 | -80.26479 | 15982 ft | 247 kts | 325° |
| 2026-04-14 10:23 | 28.29660 | -80.27617 | 15982 ft | 247 kts | 325° |
| 2026-04-14 10:23 | 28.31056 | -80.28759 | 15982 ft | 247 kts | 325° |
| 2026-04-14 10:24 | 28.32431 | -80.29885 | 15982 ft | 247 kts | 325° |
| 2026-04-14 10:24 | 28.33824 | -80.31026 | 15982 ft | 247 kts | 325° |
| 2026-04-14 10:24 | 28.35219 | -80.32169 | 15982 ft | 247 kts | 325° |
| 2026-04-14 10:24 | 28.36615 | -80.33313 | 15982 ft | 247 kts | 325° |
| 2026-04-14 10:25 | 28.38011 | -80.34457 | 15982 ft | 247 kts | 325° |
| 2026-04-14 10:25 | 28.39408 | -80.35603 | 15982 ft | 247 kts | 325° |
| 2026-04-14 10:25 | 28.40801 | -80.36750 | 15983 ft | 247 kts | 324° |
| 2026-04-14 10:25 | 28.42195 | -80.37895 | 15982 ft | 247 kts | 325° |
| 2026-04-14 10:26 | 28.43589 | -80.39040 | 15982 ft | 247 kts | 324° |
| 2026-04-14 10:26 | 28.44967 | -80.40170 | 15982 ft | 247 kts | 324° |
| 2026-04-14 10:26 | 28.46360 | -80.41312 | 15982 ft | 247 kts | 325° |
| 2026-04-14 10:26 | 28.47759 | -80.42455 | 15983 ft | 247 kts | 324° |
| 2026-04-14 10:27 | 28.49151 | -80.43598 | 15983 ft | 247 kts | 324° |
| 2026-04-14 10:27 | 28.50543 | -80.44744 | 15984 ft | 247 kts | 324° |
| 2026-04-14 10:27 | 28.51936 | -80.45890 | 15984 ft | 247 kts | 324° |
| 2026-04-14 10:27 | 28.53328 | -80.47037 | 15984 ft | 247 kts | 324° |
| 2026-04-14 10:28 | 28.54721 | -80.48185 | 15984 ft | 247 kts | 324° |
| 2026-04-14 10:28 | 28.56117 | -80.49335 | 15985 ft | 247 kts | 324° |
| 2026-04-14 10:28 | 28.57492 | -80.50468 | 15986 ft | 247 kts | 324° |
| 2026-04-14 10:28 | 28.58886 | -80.51617 | 15987 ft | 247 kts | 324° |
| 2026-04-14 10:29 | 28.60277 | -80.52764 | 15988 ft | 247 kts | 324° |
| 2026-04-14 10:29 | 28.61669 | -80.53911 | 15992 ft | 247 kts | 324° |
| 2026-04-14 10:29 | 28.63060 | -80.55059 | 15996 ft | 247 kts | 324° |
| 2026-04-14 10:29 | 28.64449 | -80.56205 | 15995 ft | 247 kts | 324° |
| 2026-04-14 10:30 | 28.65841 | -80.57353 | 15995 ft | 247 kts | 324° |
| 2026-04-14 10:30 | 28.67231 | -80.58499 | 15997 ft | 247 kts | 324° |
| 2026-04-14 10:30 | 28.68604 | -80.59632 | 15997 ft | 247 kts | 324° |
| 2026-04-14 10:30 | 28.69997 | -80.60783 | 15998 ft | 247 kts | 324° |
| 2026-04-14 10:31 | 28.71389 | -80.61935 | 15999 ft | 247 kts | 324° |
| 2026-04-14 10:31 | 28.72783 | -80.63088 | 16000 ft | 247 kts | 324° |
| 2026-04-14 10:31 | 28.74175 | -80.64239 | 15999 ft | 247 kts | 324° |
| 2026-04-14 10:31 | 28.75549 | -80.65377 | 15999 ft | 247 kts | 324° |
| 2026-04-14 10:32 | 28.76944 | -80.66531 | 16000 ft | 247 kts | 324° |
| 2026-04-14 10:32 | 28.78341 | -80.67686 | 16000 ft | 248 kts | 324° |
| 2026-04-14 10:32 | 28.79736 | -80.68841 | 16001 ft | 248 kts | 324° |
| 2026-04-14 10:32 | 28.81129 | -80.69994 | 16001 ft | 248 kts | 324° |
| 2026-04-14 10:33 | 28.82529 | -80.71154 | 16002 ft | 248 kts | 324° |
| 2026-04-14 10:33 | 28.83929 | -80.72313 | 16006 ft | 248 kts | 324° |
| 2026-04-14 10:33 | 28.85304 | -80.73454 | 16022 ft | 247 kts | 324° |
| 2026-04-14 10:33 | 28.86698 | -80.74610 | 16030 ft | 247 kts | 324° |
| 2026-04-14 10:34 | 28.89019 | -80.76536 | 16035 ft | 248 kts | 324° |
| 2026-04-14 10:34 | 28.90887 | -80.78088 | 16033 ft | 248 kts | 324° |
| 2026-04-14 10:34 | 28.92264 | -80.79232 | 16035 ft | 248 kts | 324° |
| 2026-04-14 10:35 | 28.93665 | -80.80396 | 16036 ft | 248 kts | 324° |
| 2026-04-14 10:35 | 28.95067 | -80.81561 | 16027 ft | 249 kts | 324° |
| 2026-04-14 10:35 | 28.96466 | -80.82725 | 16026 ft | 249 kts | 324° |
| 2026-04-14 10:35 | 28.97864 | -80.83890 | 16027 ft | 248 kts | 324° |
| 2026-04-14 10:36 | 28.99263 | -80.85053 | 16027 ft | 249 kts | 324° |
| 2026-04-14 10:36 | 29.00644 | -80.86204 | 16028 ft | 248 kts | 324° |
| 2026-04-14 10:36 | 29.02041 | -80.87367 | 16031 ft | 248 kts | 324° |
| 2026-04-14 10:36 | 29.03438 | -80.88531 | 16032 ft | 248 kts | 324° |
| 2026-04-14 10:37 | 29.04833 | -80.89694 | 16033 ft | 248 kts | 324° |
| 2026-04-14 10:37 | 29.06232 | -80.90860 | 16035 ft | 249 kts | 323° |
| 2026-04-14 10:37 | 29.07635 | -80.92031 | 16035 ft | 249 kts | 323° |
| 2026-04-14 10:37 | 29.09016 | -80.93183 | 16038 ft | 248 kts | 323° |
| 2026-04-14 10:38 | 29.10414 | -80.94350 | 16039 ft | 249 kts | 323° |
| 2026-04-14 10:38 | 29.11811 | -80.95517 | 16041 ft | 248 kts | 323° |
| 2026-04-14 10:38 | 29.13214 | -80.96689 | 16040 ft | 249 kts | 323° |
| 2026-04-14 10:38 | 29.14612 | -80.97858 | 16040 ft | 249 kts | 323° |
| 2026-04-14 10:39 | 29.15537 | -80.98630 | 16041 ft | 249 kts | 323° |
| 2026-04-14 10:39 | 29.17393 | -81.00183 | 16040 ft | 249 kts | 323° |
| 2026-04-14 10:39 | 29.18792 | -81.01354 | 16041 ft | 249 kts | 323° |
| 2026-04-14 10:39 | 29.19718 | -81.02129 | 16042 ft | 248 kts | 323° |
| 2026-04-14 10:40 | 29.21115 | -81.03299 | 16040 ft | 248 kts | 323° |
| 2026-04-14 10:40 | 29.22968 | -81.04852 | 16041 ft | 248 kts | 323° |
| 2026-04-14 10:40 | 29.24360 | -81.06020 | 16040 ft | 248 kts | 323° |
| 2026-04-14 10:40 | 29.25754 | -81.07190 | 16042 ft | 248 kts | 323° |
| 2026-04-14 10:41 | 29.26679 | -81.07966 | 16042 ft | 248 kts | 323° |
| 2026-04-14 10:41 | 29.28542 | -81.09529 | 16044 ft | 248 kts | 323° |
| 2026-04-14 10:41 | 29.29467 | -81.10303 | 16046 ft | 248 kts | 323° |
| 2026-04-14 10:41 | 29.30858 | -81.11470 | 16045 ft | 248 kts | 323° |
| 2026-04-14 10:42 | 29.32232 | -81.12625 | 16046 ft | 248 kts | 323° |
| 2026-04-14 10:42 | 29.33629 | -81.13800 | 16048 ft | 248 kts | 323° |
| 2026-04-14 10:42 | 29.35019 | -81.14970 | 16048 ft | 248 kts | 323° |
| 2026-04-14 10:42 | 29.36410 | -81.16142 | 16049 ft | 248 kts | 323° |
| 2026-04-14 10:43 | 29.37783 | -81.17300 | 16050 ft | 248 kts | 323° |
| 2026-04-14 10:43 | 29.39174 | -81.18475 | 16050 ft | 248 kts | 323° |
| 2026-04-14 10:43 | 29.40565 | -81.19650 | 16050 ft | 248 kts | 323° |
| 2026-04-14 10:43 | 29.41951 | -81.20822 | 16051 ft | 248 kts | 323° |
| 2026-04-14 10:44 | 29.43342 | -81.22001 | 16051 ft | 248 kts | 323° |
| 2026-04-14 10:44 | 29.44731 | -81.23179 | 16052 ft | 248 kts | 323° |
| 2026-04-14 10:44 | 29.46102 | -81.24343 | 16051 ft | 248 kts | 323° |
| 2026-04-14 10:44 | 29.47486 | -81.25522 | 16053 ft | 248 kts | 323° |
| 2026-04-14 10:45 | 29.48869 | -81.26705 | 16052 ft | 248 kts | 322° |
| 2026-04-14 10:45 | 29.50256 | -81.27891 | 16052 ft | 248 kts | 323° |
| 2026-04-14 10:45 | 29.51698 | -81.28969 | 16004 ft | 245 kts | 328° |
| 2026-04-14 10:45 | 29.53185 | -81.29940 | 15793 ft | 245 kts | 331° |
| 2026-04-14 10:46 | 29.54681 | -81.30838 | 15570 ft | 246 kts | 332° |
| 2026-04-14 10:46 | 29.56214 | -81.31717 | 15343 ft | 246 kts | 333° |
| 2026-04-14 10:46 | 29.57756 | -81.32582 | 15116 ft | 247 kts | 333° |
| 2026-04-14 10:46 | 29.59300 | -81.33440 | 14889 ft | 246 kts | 333° |
| 2026-04-14 10:47 | 29.60845 | -81.34297 | 14660 ft | 247 kts | 334° |
| 2026-04-14 10:47 | 29.62392 | -81.35155 | 14433 ft | 247 kts | 334° |
| 2026-04-14 10:47 | 29.63938 | -81.36015 | 14204 ft | 247 kts | 334° |
| 2026-04-14 10:47 | 29.65483 | -81.36876 | 13976 ft | 247 kts | 334° |
| 2026-04-14 10:48 | 29.67009 | -81.37729 | 13751 ft | 247 kts | 334° |
| 2026-04-14 10:48 | 29.68558 | -81.38596 | 13523 ft | 247 kts | 334° |
| 2026-04-14 10:48 | 29.70106 | -81.39464 | 13295 ft | 248 kts | 334° |
| 2026-04-14 10:48 | 29.71661 | -81.40337 | 13067 ft | 248 kts | 334° |
| 2026-04-14 10:49 | 29.73211 | -81.41209 | 12839 ft | 248 kts | 334° |
| 2026-04-14 10:49 | 29.74763 | -81.42083 | 12611 ft | 248 kts | 334° |
| 2026-04-14 10:49 | 29.76288 | -81.42942 | 12386 ft | 247 kts | 334° |
| 2026-04-14 10:49 | 29.77836 | -81.43817 | 12157 ft | 247 kts | 334° |
| 2026-04-14 10:50 | 29.79381 | -81.44690 | 11929 ft | 247 kts | 334° |
| 2026-04-14 10:50 | 29.80931 | -81.45569 | 11698 ft | 247 kts | 334° |
| 2026-04-14 10:50 | 29.82477 | -81.46447 | 11469 ft | 247 kts | 334° |
| 2026-04-14 10:50 | 29.83999 | -81.47315 | 11241 ft | 247 kts | 334° |
| 2026-04-14 10:51 | 29.85537 | -81.48197 | 11013 ft | 247 kts | 334° |
| 2026-04-14 10:51 | 29.87085 | -81.49070 | 10777 ft | 247 kts | 336° |
| 2026-04-14 10:51 | 29.88681 | -81.49800 | 10550 ft | 247 kts | 341° |
| 2026-04-14 10:51 | 29.90318 | -81.50421 | 10322 ft | 247 kts | 343° |
| 2026-04-14 10:52 | 29.91972 | -81.50979 | 10091 ft | 247 kts | 345° |
| 2026-04-14 10:52 | 29.93660 | -81.51359 | 9859 ft | 247 kts | 353° |
| 2026-04-14 10:52 | 29.95357 | -81.51536 | 9629 ft | 247 kts | 357° |
| 2026-04-14 10:52 | 29.97081 | -81.51636 | 9401 ft | 247 kts | 359° |
| 2026-04-14 10:53 | 29.98803 | -81.51706 | 9172 ft | 247 kts | 360° |
| 2026-04-14 10:53 | 30.00517 | -81.51744 | 8943 ft | 245 kts | 1° |
| 2026-04-14 10:53 | 30.02222 | -81.51692 | 8714 ft | 244 kts | 4° |
| 2026-04-14 10:53 | 30.03917 | -81.51597 | 8486 ft | 243 kts | 4° |
| 2026-04-14 10:54 | 30.05582 | -81.51486 | 8260 ft | 242 kts | 5° |
| 2026-04-14 10:54 | 30.07261 | -81.51367 | 8027 ft | 242 kts | 5° |
| 2026-04-14 10:54 | 30.08938 | -81.51244 | 7799 ft | 242 kts | 5° |
| 2026-04-14 10:54 | 30.10616 | -81.51117 | 7571 ft | 241 kts | 5° |
| 2026-04-14 10:55 | 30.12292 | -81.50941 | 7343 ft | 241 kts | 8° |
| 2026-04-14 10:55 | 30.13943 | -81.50621 | 7115 ft | 241 kts | 12° |
| 2026-04-14 10:55 | 30.15584 | -81.50233 | 6885 ft | 241 kts | 13° |
| 2026-04-14 10:55 | 30.17228 | -81.49816 | 6657 ft | 241 kts | 13° |
| 2026-04-14 10:56 | 30.18864 | -81.49385 | 6435 ft | 239 kts | 13° |
| 2026-04-14 10:56 | 30.20317 | -81.48996 | 6280 ft | 201 kts | 14° |
| 2026-04-14 10:56 | 30.21635 | -81.48640 | 6040 ft | 190 kts | 14° |
| 2026-04-14 10:56 | 30.22921 | -81.48292 | 5809 ft | 189 kts | 14° |
| 2026-04-14 10:57 | 30.24207 | -81.47945 | 5582 ft | 190 kts | 14° |
| 2026-04-14 10:57 | 30.25505 | -81.47600 | 5355 ft | 193 kts | 14° |
| 2026-04-14 10:57 | 30.26810 | -81.47255 | 5132 ft | 195 kts | 14° |
| 2026-04-14 10:57 | 30.28137 | -81.46907 | 4905 ft | 197 kts | 14° |
| 2026-04-14 10:58 | 30.29481 | -81.46558 | 4677 ft | 198 kts | 14° |
| 2026-04-14 10:58 | 30.30828 | -81.46211 | 4447 ft | 199 kts | 14° |
| 2026-04-14 10:58 | 30.32184 | -81.45864 | 4214 ft | 199 kts | 14° |
| 2026-04-14 10:58 | 30.33515 | -81.45525 | 4075 ft | 197 kts | 14° |
| 2026-04-14 10:59 | 30.34846 | -81.45190 | 4007 ft | 193 kts | 14° |
| 2026-04-14 10:59 | 30.36143 | -81.44865 | 3993 ft | 189 kts | 14° |
| 2026-04-14 10:59 | 30.37425 | -81.44548 | 3989 ft | 186 kts | 13° |
| 2026-04-14 10:59 | 30.38706 | -81.44231 | 4000 ft | 191 kts | 14° |
| 2026-04-14 11:00 | 30.40043 | -81.43895 | 3869 ft | 201 kts | 14° |
| 2026-04-14 11:00 | 30.41431 | -81.43544 | 3699 ft | 206 kts | 14° |
| 2026-04-14 11:00 | 30.42827 | -81.43188 | 3527 ft | 209 kts | 14° |
| 2026-04-14 11:00 | 30.44252 | -81.42824 | 3350 ft | 210 kts | 14° |
| 2026-04-14 11:01 | 30.45689 | -81.42464 | 3181 ft | 210 kts | 14° |
| 2026-04-14 11:01 | 30.47119 | -81.42105 | 3048 ft | 209 kts | 14° |
| 2026-04-14 11:01 | 30.48536 | -81.41757 | 3010 ft | 206 kts | 13° |
| 2026-04-14 11:01 | 30.49915 | -81.41417 | 3004 ft | 204 kts | 14° |
| 2026-04-14 11:02 | 30.51316 | -81.41137 | 2997 ft | 204 kts | 7° |
| 2026-04-14 11:02 | 30.52730 | -81.41240 | 3006 ft | 204 kts | 351° |
| 2026-04-14 11:02 | 30.54112 | -81.41638 | 3009 ft | 204 kts | 344° |
| 2026-04-14 11:02 | 30.55475 | -81.42122 | 3008 ft | 205 kts | 342° |
| 2026-04-14 11:03 | 30.56808 | -81.42709 | 2993 ft | 205 kts | 332° |
| 2026-04-14 11:03 | 30.57838 | -81.43794 | 3005 ft | 201 kts | 305° |
| 2026-04-14 11:03 | 30.58353 | -81.45254 | 3008 ft | 196 kts | 278° |
| 2026-04-14 11:03 | 30.58252 | -81.46807 | 3018 ft | 192 kts | 251° |
| 2026-04-14 11:04 | 30.57606 | -81.48133 | 3031 ft | 188 kts | 230° |
| 2026-04-14 11:04 | 30.56756 | -81.49283 | 3019 ft | 188 kts | 226° |
| 2026-04-14 11:04 | 30.55922 | -81.50463 | 2975 ft | 191 kts | 229° |
| 2026-04-14 11:04 | 30.55217 | -81.51647 | 2814 ft | 159 kts | 235° |
| 2026-04-14 11:05 | 30.54736 | -81.52748 | 2609 ft | 150 kts | 242° |
| 2026-04-14 11:05 | 30.54363 | -81.53880 | 2377 ft | 150 kts | 248° |
| 2026-04-14 11:05 | 30.54053 | -81.55038 | 2158 ft | 150 kts | 250° |
| 2026-04-14 11:05 | 30.53767 | -81.56200 | 1964 ft | 149 kts | 251° |
| 2026-04-14 11:06 | 30.53475 | -81.57354 | 1767 ft | 149 kts | 251° |
| 2026-04-14 11:06 | 30.53158 | -81.58494 | 1569 ft | 148 kts | 249° |
| 2026-04-14 11:06 | 30.52809 | -81.59617 | 1376 ft | 147 kts | 249° |
| 2026-04-14 11:06 | 30.52432 | -81.60722 | 1186 ft | 147 kts | 249° |
| 2026-04-14 11:07 | 30.52078 | -81.61831 | 994 ft | 147 kts | 250° |
| 2026-04-14 11:07 | 30.51756 | -81.62939 | 818 ft | 146 kts | 252° |
| 2026-04-14 11:07 | 30.51432 | -81.64061 | 641 ft | 146 kts | 251° |
| 2026-04-14 11:07 | 30.51111 | -81.65171 | 506 ft | 142 kts | 252° |
| 2026-04-14 11:08 | 30.50781 | -81.66225 | 277 ft | 137 kts | 251° |
| 2026-04-14 11:08 | 30.50459 | -81.67252 | 68 ft | 131 kts | 250° |
| 2026-04-14 11:08 | 30.50213 | -81.68048 | 38 ft | 80 kts | 250° |
| 2026-04-14 11:08 | 30.50118 | -81.68373 | 38 ft | 26 kts | 254° |
| 2026-04-14 11:09 | 30.50074 | -81.68530 | 38 ft | 15 kts | 237° |
| 2026-04-14 11:09 | 30.49991 | -81.68597 | 38 ft | 12 kts | 204° |
| 2026-04-14 11:09 | 30.49925 | -81.68591 | 38 ft | 15 kts | 163° |
| 2026-04-14 11:10 | 30.49718 | -81.68566 | 38 ft | 16 kts | 188° |
| 2026-04-14 11:10 | 30.49641 | -81.68560 | 38 ft | 5 kts | 119° |
| 2026-04-14 11:10 | 30.49637 | -81.68549 | 38 ft | 0 kts | 91° |